sensor_id;sensor_type;location;lat;lon;timestamp;pressure;altitude;pressure_sealevel;temperature;humidity
18784;BME280;9520;50.954;6.968;2023-04-20T00:00:18;101356.16;;;17.04;27.36
18784;BME280;9520;50.954;6.968;2023-04-20T00:00:42;101377.91;;;17.18;28.28
18784;BME280;9520;50.954;6.968;2023-04-20T00:01:04;101387.53;;;17.23;27.77
18784;BME280;9520;50.954;6.968;2023-04-20T00:01:26;101383.06;;;17.24;27.95
18784;BME280;9520;50.954;6.968;2023-04-20T00:01:47;101383.03;;;17.25;27.56
18784;BME280;9520;50.954;6.968;2023-04-20T00:02:10;101389.28;;;17.24;27.57
18784;BME280;9520;50.954;6.968;2023-04-20T00:02:34;101380.44;;;17.22;27.39
18784;BME280;9520;50.954;6.968;2023-04-20T00:02:55;101381.28;;;17.24;27.74
18784;BME280;9520;50.954;6.968;2023-04-20T00:03:18;101384.06;;;17.21;27.82
18784;BME280;9520;50.954;6.968;2023-04-20T00:03:42;101387.44;;;17.26;27.88
18784;BME280;9520;50.954;6.968;2023-04-20T00:04:04;101389.28;;;17.24;27.91
18784;BME280;9520;50.954;6.968;2023-04-20T00:04:25;101384.84;;;17.23;27.35
18784;BME280;9520;50.954;6.968;2023-04-20T00:04:47;101380.41;;;17.24;27.36
18784;BME280;9520;50.954;6.968;2023-04-20T00:05:10;101378.66;;;17.23;27.58
18784;BME280;9520;50.954;6.968;2023-04-20T00:05:32;101376.06;;;17.21;27.15
18784;BME280;9520;50.954;6.968;2023-04-20T00:05:54;101380.50;;;17.21;27.24
18784;BME280;9520;50.954;6.968;2023-04-20T00:06:16;101377.78;;;17.22;27.67
18784;BME280;9520;50.954;6.968;2023-04-20T00:06:38;101383.19;;;17.21;27.25
18784;BME280;9520;50.954;6.968;2023-04-20T00:07:02;101379.56;;;17.22;27.00
18784;BME280;9520;50.954;6.968;2023-04-20T00:07:24;101384.84;;;17.23;27.00
18784;BME280;9520;50.954;6.968;2023-04-20T00:07:47;101382.16;;;17.25;26.85
18784;BME280;9520;50.954;6.968;2023-04-20T00:08:10;101374.31;;;17.20;27.06
18784;BME280;9520;50.954;6.968;2023-04-20T00:08:32;101380.59;;;17.18;27.42
18784;BME280;9520;50.954;6.968;2023-04-20T00:08:53;101373.56;;;17.15;27.74
18784;BME280;9520;50.954;6.968;2023-04-20T00:09:15;101371.78;;;17.16;27.35
18784;BME280;9520;50.954;6.968;2023-04-20T00:09:37;101375.41;;;17.13;26.96
18784;BME280;9520;50.954;6.968;2023-04-20T00:09:59;101372.72;;;17.13;26.54
18784;BME280;9520;50.954;6.968;2023-04-20T00:10:21;101356.06;;;17.07;26.50
18784;BME280;9520;50.954;6.968;2023-04-20T00:10:43;101385.16;;;17.14;26.65
18784;BME280;9520;50.954;6.968;2023-04-20T00:11:05;101378.84;;;17.17;26.48
18784;BME280;9520;50.954;6.968;2023-04-20T00:11:28;101372.72;;;17.13;26.38
18784;BME280;9520;50.954;6.968;2023-04-20T00:11:50;101379.09;;;17.09;26.07
18784;BME280;9520;50.954;6.968;2023-04-20T00:12:12;101368.56;;;17.05;26.25
18784;BME280;9520;50.954;6.968;2023-04-20T00:12:34;101369.72;;;16.96;26.27
18784;BME280;9520;50.954;6.968;2023-04-20T00:12:56;101380.28;;;16.99;26.41
18784;BME280;9520;50.954;6.968;2023-04-20T00:13:18;101376.69;;;17.00;26.37
18784;BME280;9520;50.954;6.968;2023-04-20T00:13:40;101376.75;;;16.99;26.00
18784;BME280;9520;50.954;6.968;2023-04-20T00:14:02;101374.94;;;16.99;26.14
18784;BME280;9520;50.954;6.968;2023-04-20T00:14:23;101368.78;;;16.97;26.40
18784;BME280;9520;50.954;6.968;2023-04-20T00:14:46;101379.44;;;16.97;26.63
18784;BME280;9520;50.954;6.968;2023-04-20T00:15:08;101370.59;;;16.97;27.08
18784;BME280;9520;50.954;6.968;2023-04-20T00:15:32;101373.19;;;16.98;26.81
18784;BME280;9520;50.954;6.968;2023-04-20T00:15:54;101364.31;;;16.98;26.95
18784;BME280;9520;50.954;6.968;2023-04-20T00:16:17;101353.06;;;16.88;27.47
18784;BME280;9520;50.954;6.968;2023-04-20T00:16:39;101369.59;;;17.01;27.26
18784;BME280;9520;50.954;6.968;2023-04-20T00:17:00;101374.00;;;17.02;26.81
18784;BME280;9520;50.954;6.968;2023-04-20T00:17:22;101373.06;;;17.03;27.16
18784;BME280;9520;50.954;6.968;2023-04-20T00:17:45;101371.25;;;17.03;27.23
18784;BME280;9520;50.954;6.968;2023-04-20T00:18:09;101361.59;;;17.01;26.65
18784;BME280;9520;50.954;6.968;2023-04-20T00:18:30;101367.88;;;16.98;26.88
18784;BME280;9520;50.954;6.968;2023-04-20T00:18:53;101363.53;;;16.96;26.35
18784;BME280;9520;50.954;6.968;2023-04-20T00:19:15;101373.19;;;16.98;26.45
18784;BME280;9520;50.954;6.968;2023-04-20T00:19:37;101368.84;;;16.96;26.93
18784;BME280;9520;50.954;6.968;2023-04-20T00:19:59;101368.78;;;16.97;27.45
18784;BME280;9520;50.954;6.968;2023-04-20T00:20:21;101365.28;;;16.97;27.57
18784;BME280;9520;50.954;6.968;2023-04-20T00:20:44;101362.53;;;16.98;27.43
18784;BME280;9520;50.954;6.968;2023-04-20T00:21:06;101365.28;;;16.97;27.69
18784;BME280;9520;50.954;6.968;2023-04-20T00:21:28;101363.53;;;16.96;27.18
18784;BME280;9520;50.954;6.968;2023-04-20T00:21:49;101368.84;;;16.96;27.20
18784;BME280;9520;50.954;6.968;2023-04-20T00:22:13;101366.19;;;16.96;27.10
18784;BME280;9520;50.954;6.968;2023-04-20T00:22:34;101360.75;;;16.99;26.91
18784;BME280;9520;50.954;6.968;2023-04-20T00:22:56;101363.53;;;16.96;26.96
18784;BME280;9520;50.954;6.968;2023-04-20T00:23:18;101358.22;;;16.94;27.03
18784;BME280;9520;50.954;6.968;2023-04-20T00:23:40;101356.53;;;16.92;26.68
18784;BME280;9520;50.954;6.968;2023-04-20T00:24:02;101360.88;;;16.94;27.92
18784;BME280;9520;50.954;6.968;2023-04-20T00:24:24;101358.25;;;16.93;28.33
18784;BME280;9520;50.954;6.968;2023-04-20T00:24:46;101359.13;;;16.93;27.93
18784;BME280;9520;50.954;6.968;2023-04-20T00:25:08;101356.44;;;16.95;27.23
18784;BME280;9520;50.954;6.968;2023-04-20T00:25:30;101343.38;;;16.87;27.22
18784;BME280;9520;50.954;6.968;2023-04-20T00:25:52;101359.09;;;16.95;27.12
18784;BME280;9520;50.954;6.968;2023-04-20T00:26:14;101351.97;;;16.95;27.35
18784;BME280;9520;50.954;6.968;2023-04-20T00:26:42;101353.72;;;16.96;26.99
18784;BME280;9520;50.954;6.968;2023-04-20T00:27:04;101343.06;;;16.96;27.74
18784;BME280;9520;50.954;6.968;2023-04-20T00:27:26;101352.75;;;16.99;27.91
18784;BME280;9520;50.954;6.968;2023-04-20T00:27:48;101347.41;;;16.99;27.63
18784;BME280;9520;50.954;6.968;2023-04-20T00:28:10;101351.88;;;16.98;27.22
18784;BME280;9520;50.954;6.968;2023-04-20T00:28:31;101343.88;;;16.98;27.41
18784;BME280;9520;50.954;6.968;2023-04-20T00:28:54;101344.78;;;16.97;27.07
18784;BME280;9520;50.954;6.968;2023-04-20T00:29:16;101342.09;;;16.99;26.61
18784;BME280;9520;50.954;6.968;2023-04-20T00:29:38;101342.09;;;16.99;26.87
18784;BME280;9520;50.954;6.968;2023-04-20T00:29:59;101343.88;;;16.98;26.85
18784;BME280;9520;50.954;6.968;2023-04-20T00:30:21;101336.81;;;16.97;26.77
18784;BME280;9520;50.954;6.968;2023-04-20T00:30:44;101339.47;;;16.97;27.71
18784;BME280;9520;50.954;6.968;2023-04-20T00:31:06;101339.44;;;16.99;27.80
18784;BME280;9520;50.954;6.968;2023-04-20T00:31:30;101339.38;;;17.00;27.60
18784;BME280;9520;50.954;6.968;2023-04-20T00:31:51;101342.94;;;17.01;27.82
18784;BME280;9520;50.954;6.968;2023-04-20T00:32:14;101338.56;;;16.98;27.80
18784;BME280;9520;50.954;6.968;2023-04-20T00:32:36;101328.75;;;16.99;27.68
18784;BME280;9520;50.954;6.968;2023-04-20T00:32:58;101332.31;;;16.99;27.75
18784;BME280;9520;50.954;6.968;2023-04-20T00:33:19;101331.41;;;17.00;27.56
18784;BME280;9520;50.954;6.968;2023-04-20T00:33:42;101332.28;;;17.01;27.58
18784;BME280;9520;50.954;6.968;2023-04-20T00:34:03;101334.81;;;17.04;27.52
18784;BME280;9520;50.954;6.968;2023-04-20T00:34:27;101331.34;;;17.02;27.43
18784;BME280;9520;50.954;6.968;2023-04-20T00:34:49;101333.94;;;17.03;27.41
18784;BME280;9520;50.954;6.968;2023-04-20T00:35:12;101326.88;;;17.02;27.39
18784;BME280;9520;50.954;6.968;2023-04-20T00:35:33;101330.41;;;17.03;27.47
18784;BME280;9520;50.954;6.968;2023-04-20T00:36:30;101330.53;;;17.00;26.67
18784;BME280;9520;50.954;6.968;2023-04-20T00:36:53;101325.16;;;17.01;26.84
18784;BME280;9520;50.954;6.968;2023-04-20T00:37:14;101335.75;;;17.03;26.78
18784;BME280;9520;50.954;6.968;2023-04-20T00:37:36;101319.03;;;16.98;26.73
18784;BME280;9520;50.954;6.968;2023-04-20T00:37:58;101326.94;;;17.01;26.43
18784;BME280;9520;50.954;6.968;2023-04-20T00:38:19;101332.19;;;17.02;26.45
18784;BME280;9520;50.954;6.968;2023-04-20T00:38:42;101329.50;;;17.04;26.69
18784;BME280;9520;50.954;6.968;2023-04-20T00:39:03;101325.03;;;17.04;26.61
18784;BME280;9520;50.954;6.968;2023-04-20T00:39:26;101325.94;;;17.03;26.98
18784;BME280;9520;50.954;6.968;2023-04-20T00:39:48;101325.06;;;17.03;27.23
18784;BME280;9520;50.954;6.968;2023-04-20T00:40:11;101322.38;;;17.04;27.19
18784;BME280;9520;50.954;6.968;2023-04-20T00:40:32;101326.78;;;17.05;27.19
18784;BME280;9520;50.954;6.968;2023-04-20T00:40:57;101319.66;;;17.06;27.00
18784;BME280;9520;50.954;6.968;2023-04-20T00:41:20;101325.03;;;17.04;26.58
18784;BME280;9520;50.954;6.968;2023-04-20T00:41:43;101317.03;;;17.04;27.00
18784;BME280;9520;50.954;6.968;2023-04-20T00:42:06;101323.22;;;17.06;27.34
18784;BME280;9520;50.954;6.968;2023-04-20T00:42:28;101311.59;;;17.07;27.31
18784;BME280;9520;50.954;6.968;2023-04-20T00:42:49;101323.94;;;17.11;27.26
18784;BME280;9520;50.954;6.968;2023-04-20T00:43:12;101319.59;;;17.07;27.52
18784;BME280;9520;50.954;6.968;2023-04-20T00:43:34;101319.56;;;17.09;27.20
18784;BME280;9520;50.954;6.968;2023-04-20T00:43:56;101315.94;;;17.11;27.12
18784;BME280;9520;50.954;6.968;2023-04-20T00:44:18;101319.53;;;17.10;27.53
18784;BME280;9520;50.954;6.968;2023-04-20T00:44:40;101319.53;;;17.10;26.94
18784;BME280;9520;50.954;6.968;2023-04-20T00:45:02;101315.06;;;17.11;27.03
18784;BME280;9520;50.954;6.968;2023-04-20T00:45:24;101316.91;;;17.09;26.71
18784;BME280;9520;50.954;6.968;2023-04-20T00:45:46;101299.56;;;16.96;27.00
18784;BME280;9520;50.954;6.968;2023-04-20T00:46:09;101312.63;;;17.03;27.33
18784;BME280;9520;50.954;6.968;2023-04-20T00:46:30;101308.94;;;17.07;27.14
18784;BME280;9520;50.954;6.968;2023-04-20T00:46:52;101309.78;;;17.09;27.50
18784;BME280;9520;50.954;6.968;2023-04-20T00:47:16;101316.84;;;17.10;27.22
18784;BME280;9520;50.954;6.968;2023-04-20T00:47:39;101310.66;;;17.10;27.51
18784;BME280;9520;50.954;6.968;2023-04-20T00:48:01;101304.44;;;17.09;26.99
18784;BME280;9520;50.954;6.968;2023-04-20T00:48:23;101312.41;;;17.11;26.69
18784;BME280;9520;50.954;6.968;2023-04-20T00:48:44;101315.00;;;17.12;26.32
18784;BME280;9520;50.954;6.968;2023-04-20T00:49:07;101307.00;;;17.12;26.17
18784;BME280;9520;50.954;6.968;2023-04-20T00:49:30;101311.53;;;17.10;26.54
18784;BME280;9520;50.954;6.968;2023-04-20T00:49:53;101305.34;;;17.08;26.42
18784;BME280;9520;50.954;6.968;2023-04-20T00:50:15;101304.56;;;17.06;27.10
18784;BME280;9520;50.954;6.968;2023-04-20T00:50:38;101314.22;;;17.09;26.74
18784;BME280;9520;50.954;6.968;2023-04-20T00:51:02;101312.44;;;17.09;26.36
18784;BME280;9520;50.954;6.968;2023-04-20T00:51:23;101311.59;;;17.07;26.55
18784;BME280;9520;50.954;6.968;2023-04-20T00:51:45;101308.13;;;17.05;27.15
18784;BME280;9520;50.954;6.968;2023-04-20T00:52:07;101312.56;;;17.06;27.15
18784;BME280;9520;50.954;6.968;2023-04-20T00:52:31;101310.69;;;17.08;27.04
18784;BME280;9520;50.954;6.968;2023-04-20T00:52:53;101304.47;;;17.08;26.74
18784;BME280;9520;50.954;6.968;2023-04-20T00:53:15;101305.47;;;17.05;26.94
18784;BME280;9520;50.954;6.968;2023-04-20T00:53:37;101307.22;;;17.06;26.95
18784;BME280;9520;50.954;6.968;2023-04-20T00:54:00;101304.47;;;17.08;27.88
18784;BME280;9520;50.954;6.968;2023-04-20T00:54:22;101307.16;;;17.08;27.77
18784;BME280;9520;50.954;6.968;2023-04-20T00:54:44;101303.72;;;17.04;27.73
18784;BME280;9520;50.954;6.968;2023-04-20T00:55:06;101300.94;;;17.07;27.59
18784;BME280;9520;50.954;6.968;2023-04-20T00:55:29;101300.03;;;17.08;27.00
18784;BME280;9520;50.954;6.968;2023-04-20T00:55:51;101311.69;;;17.06;26.79
18784;BME280;9520;50.954;6.968;2023-04-20T00:56:13;101267.94;;;16.83;26.59
18784;BME280;9520;50.954;6.968;2023-04-20T00:56:37;101304.75;;;17.00;26.39
18784;BME280;9520;50.954;6.968;2023-04-20T00:57:03;101303.88;;;17.00;26.47
18784;BME280;9520;50.954;6.968;2023-04-20T00:57:25;101301.97;;;17.03;26.55
18784;BME280;9520;50.954;6.968;2023-04-20T00:57:48;101303.81;;;17.01;26.94
18784;BME280;9520;50.954;6.968;2023-04-20T00:58:10;101297.78;;;16.96;27.01
18784;BME280;9520;50.954;6.968;2023-04-20T00:58:32;101301.94;;;17.05;27.31
18784;BME280;9520;50.954;6.968;2023-04-20T00:58:54;101290.50;;;17.01;27.12
18784;BME280;9520;50.954;6.968;2023-04-20T00:59:16;101298.38;;;17.04;27.28
18784;BME280;9520;50.954;6.968;2023-04-20T00:59:39;101291.31;;;17.03;26.96
18784;BME280;9520;50.954;6.968;2023-04-20T01:00:02;101294.84;;;17.04;26.51
18784;BME280;9520;50.954;6.968;2023-04-20T01:00:27;101290.44;;;17.03;26.29
18784;BME280;9520;50.954;6.968;2023-04-20T01:00:48;101290.53;;;17.00;26.81
18784;BME280;9520;50.954;6.968;2023-04-20T01:01:12;101292.47;;;16.95;27.33
18784;BME280;9520;50.954;6.968;2023-04-20T01:01:39;101303.13;;;16.95;27.54
18784;BME280;9520;50.954;6.968;2023-04-20T01:02:01;101294.25;;;16.94;27.46
18784;BME280;9520;50.954;6.968;2023-04-20T01:02:23;101294.25;;;16.94;28.04
18784;BME280;9520;50.954;6.968;2023-04-20T01:02:45;101297.81;;;16.95;27.47
18784;BME280;9520;50.954;6.968;2023-04-20T01:03:08;101290.66;;;16.97;26.77
18784;BME280;9520;50.954;6.968;2023-04-20T01:03:30;101295.19;;;16.93;26.82
18784;BME280;9520;50.954;6.968;2023-04-20T01:03:54;101292.50;;;16.93;27.12
18784;BME280;9520;50.954;6.968;2023-04-20T01:04:16;101289.84;;;16.93;27.23
18784;BME280;9520;50.954;6.968;2023-04-20T01:04:40;101288.13;;;16.92;27.31
18784;BME280;9520;50.954;6.968;2023-04-20T01:05:01;101298.66;;;16.97;27.70
18784;BME280;9520;50.954;6.968;2023-04-20T01:05:24;101290.66;;;16.97;27.69
18784;BME280;9520;50.954;6.968;2023-04-20T01:05:46;101287.03;;;16.98;27.65
18784;BME280;9520;50.954;6.968;2023-04-20T01:06:09;101282.50;;;17.01;27.05
18784;BME280;9520;50.954;6.968;2023-04-20T01:06:31;101291.41;;;17.00;26.73
18784;BME280;9520;50.954;6.968;2023-04-20T01:06:52;101278.09;;;17.00;26.50
18784;BME280;9520;50.954;6.968;2023-04-20T01:07:15;101286.16;;;16.97;26.53
18784;BME280;9520;50.954;6.968;2023-04-20T01:07:36;101280.84;;;16.97;26.26
18784;BME280;9520;50.954;6.968;2023-04-20T01:07:59;101286.28;;;16.94;26.75
18784;BME280;9520;50.954;6.968;2023-04-20T01:08:24;101283.59;;;16.94;26.45
18784;BME280;9520;50.954;6.968;2023-04-20T01:08:49;101282.06;;;16.87;26.34
18784;BME280;9520;50.954;6.968;2023-04-20T01:09:11;101288.25;;;16.88;26.66
18784;BME280;9520;50.954;6.968;2023-04-20T01:09:36;101287.41;;;16.87;26.74
18784;BME280;9520;50.954;6.968;2023-04-20T01:09:59;101286.53;;;16.87;26.76
18784;BME280;9520;50.954;6.968;2023-04-20T01:10:20;101277.66;;;16.86;26.93
18784;BME280;9520;50.954;6.968;2023-04-20T01:10:44;101280.34;;;16.84;27.49
18784;BME280;9520;50.954;6.968;2023-04-20T01:11:06;101281.25;;;16.85;27.37
18784;BME280;9520;50.954;6.968;2023-04-20T01:11:28;101286.53;;;16.87;27.53
18784;BME280;9520;50.954;6.968;2023-04-20T01:11:50;101279.41;;;16.87;27.54
18784;BME280;9520;50.954;6.968;2023-04-20T01:12:13;101278.53;;;16.87;28.18
18784;BME280;9520;50.954;6.968;2023-04-20T01:12:37;101288.06;;;16.94;27.84
18784;BME280;9520;50.954;6.968;2023-04-20T01:12:59;101279.19;;;16.93;28.51
18784;BME280;9520;50.954;6.968;2023-04-20T01:13:21;101280.06;;;16.94;28.10
18784;BME280;9520;50.954;6.968;2023-04-20T01:13:42;101284.53;;;16.93;27.98
18784;BME280;9520;50.954;6.968;2023-04-20T01:14:04;101284.44;;;16.96;27.99
18784;BME280;9520;50.954;6.968;2023-04-20T01:14:27;101278.25;;;16.96;27.42
18784;BME280;9520;50.954;6.968;2023-04-20T01:14:50;101283.56;;;16.96;27.67
18784;BME280;9520;50.954;6.968;2023-04-20T01:15:12;101273.78;;;16.96;27.87
18784;BME280;9520;50.954;6.968;2023-04-20T01:15:33;101283.47;;;16.99;28.10
18784;BME280;9520;50.954;6.968;2023-04-20T01:15:57;101278.13;;;16.99;27.89
18784;BME280;9520;50.954;6.968;2023-04-20T01:16:20;101282.50;;;17.01;28.22
18784;BME280;9520;50.954;6.968;2023-04-20T01:16:43;101279.03;;;16.98;27.83
18784;BME280;9520;50.954;6.968;2023-04-20T01:17:06;101286.09;;;17.00;27.85
18784;BME280;9520;50.954;6.968;2023-04-20T01:17:28;101280.75;;;17.00;28.27
18784;BME280;9520;50.954;6.968;2023-04-20T01:17:51;101281.72;;;16.98;27.67
18784;BME280;9520;50.954;6.968;2023-04-20T01:18:15;101282.53;;;17.00;27.69
18784;BME280;9520;50.954;6.968;2023-04-20T01:18:41;101281.72;;;16.98;28.27
18784;BME280;9520;50.954;6.968;2023-04-20T01:19:04;101284.44;;;16.96;27.45
18784;BME280;9520;50.954;6.968;2023-04-20T01:19:27;101280.94;;;16.94;27.40
18784;BME280;9520;50.954;6.968;2023-04-20T01:19:48;101283.56;;;16.96;27.52
18784;BME280;9520;50.954;6.968;2023-04-20T01:20:10;101277.25;;;16.98;28.31
18784;BME280;9520;50.954;6.968;2023-04-20T01:20:32;101282.59;;;16.98;28.06
18784;BME280;9520;50.954;6.968;2023-04-20T01:20:55;101276.34;;;16.99;28.32
18784;BME280;9520;50.954;6.968;2023-04-20T01:21:18;101270.25;;;16.96;28.42
18784;BME280;9520;50.954;6.968;2023-04-20T01:21:41;101279.00;;;16.99;28.42
18784;BME280;9520;50.954;6.968;2023-04-20T01:22:03;101278.88;;;17.02;28.04
18784;BME280;9520;50.954;6.968;2023-04-20T01:22:27;101276.19;;;17.04;28.04
18784;BME280;9520;50.954;6.968;2023-04-20T01:22:50;101272.59;;;17.05;28.04
18784;BME280;9520;50.954;6.968;2023-04-20T01:23:14;101285.03;;;17.06;27.84
18784;BME280;9520;50.954;6.968;2023-04-20T01:23:38;101275.22;;;17.06;27.98
18784;BME280;9520;50.954;6.968;2023-04-20T01:23:59;101279.56;;;17.09;27.75
18784;BME280;9520;50.954;6.968;2023-04-20T01:24:21;101269.78;;;17.09;28.25
18784;BME280;9520;50.954;6.968;2023-04-20T01:24:44;101270.66;;;17.10;28.00
18784;BME280;9520;50.954;6.968;2023-04-20T01:25:07;101277.78;;;17.09;27.74
18784;BME280;9520;50.954;6.968;2023-04-20T01:25:29;101275.00;;;17.12;27.52
18784;BME280;9520;50.954;6.968;2023-04-20T01:25:51;101275.13;;;17.09;27.33
18784;BME280;9520;50.954;6.968;2023-04-20T01:26:15;101272.50;;;17.08;27.55
18784;BME280;9520;50.954;6.968;2023-04-20T01:26:38;101250.72;;;16.95;27.39
18784;BME280;9520;50.954;6.968;2023-04-20T01:27:01;101276.94;;;17.07;27.04
18784;BME280;9520;50.954;6.968;2023-04-20T01:27:22;101276.16;;;17.05;27.17
18784;BME280;9520;50.954;6.968;2023-04-20T01:27:44;101276.22;;;17.02;27.31
18784;BME280;9520;50.954;6.968;2023-04-20T01:28:07;101283.47;;;16.99;27.66
18784;BME280;9520;50.954;6.968;2023-04-20T01:28:29;101272.72;;;17.02;27.78
18784;BME280;9520;50.954;6.968;2023-04-20T01:28:51;101264.06;;;16.94;27.58
18784;BME280;9520;50.954;6.968;2023-04-20T01:29:13;101270.09;;;17.00;28.00
18784;BME280;9520;50.954;6.968;2023-04-20T01:29:36;101267.50;;;16.97;27.95
18784;BME280;9520;50.954;6.968;2023-04-20T01:29:58;101267.38;;;17.02;28.15
18784;BME280;9520;50.954;6.968;2023-04-20T01:30:20;101272.78;;;16.99;28.43
18784;BME280;9520;50.954;6.968;2023-04-20T01:30:42;101266.50;;;17.01;28.47
18784;BME280;9520;50.954;6.968;2023-04-20T01:31:06;101275.31;;;17.03;28.50
18784;BME280;9520;50.954;6.968;2023-04-20T01:31:28;101275.31;;;17.03;28.68
18784;BME280;9520;50.954;6.968;2023-04-20T01:31:52;101273.63;;;17.01;28.58
18784;BME280;9520;50.954;6.968;2023-04-20T01:32:14;101275.44;;;17.00;28.51
18784;BME280;9520;50.954;6.968;2023-04-20T01:32:37;101269.97;;;17.03;28.86
18784;BME280;9520;50.954;6.968;2023-04-20T01:32:59;101272.59;;;17.05;28.91
18784;BME280;9520;50.954;6.968;2023-04-20T01:33:21;101271.72;;;17.04;28.64
18784;BME280;9520;50.954;6.968;2023-04-20T01:33:44;101268.22;;;17.02;28.54
18784;BME280;9520;50.954;6.968;2023-04-20T01:34:06;101270.06;;;17.02;28.21
18784;BME280;9520;50.954;6.968;2023-04-20T01:34:28;101273.63;;;17.01;28.13
18784;BME280;9520;50.954;6.968;2023-04-20T01:34:50;101274.50;;;17.01;28.54
18784;BME280;9520;50.954;6.968;2023-04-20T01:35:12;101266.59;;;16.98;29.05
18784;BME280;9520;50.954;6.968;2023-04-20T01:35:34;101263.06;;;16.98;29.04
18784;BME280;9520;50.954;6.968;2023-04-20T01:35:57;101274.44;;;17.03;28.76
18784;BME280;9520;50.954;6.968;2023-04-20T01:36:18;101271.84;;;17.01;28.93
18784;BME280;9520;50.954;6.968;2023-04-20T01:36:40;101269.06;;;17.04;28.75
18784;BME280;9520;50.954;6.968;2023-04-20T01:37:02;101266.41;;;17.04;28.76
18784;BME280;9520;50.954;6.968;2023-04-20T01:37:29;101267.38;;;17.02;29.01
18784;BME280;9520;50.954;6.968;2023-04-20T01:37:51;101259.31;;;17.03;28.86
18784;BME280;9520;50.954;6.968;2023-04-20T01:38:16;101268.22;;;17.02;29.76
18784;BME280;9520;50.954;6.968;2023-04-20T01:38:38;101242.88;;;16.91;29.69
18784;BME280;9520;50.954;6.968;2023-04-20T01:39:01;101263.94;;;16.98;28.54
18784;BME280;9520;50.954;6.968;2023-04-20T01:39:23;101263.00;;;16.99;28.76
18784;BME280;9520;50.954;6.968;2023-04-20T01:39:47;101262.13;;;16.99;28.68
18784;BME280;9520;50.954;6.968;2023-04-20T01:40:10;101261.25;;;16.98;28.46
18784;BME280;9520;50.954;6.968;2023-04-20T01:40:33;101260.31;;;17.01;28.79
18784;BME280;9520;50.954;6.968;2023-04-20T01:40:55;101261.38;;;16.95;28.77
18784;BME280;9520;50.954;6.968;2023-04-20T01:41:17;101254.09;;;17.00;28.38
18784;BME280;9520;50.954;6.968;2023-04-20T01:41:38;101253.19;;;17.01;28.11
18784;BME280;9520;50.954;6.968;2023-04-20T01:42:01;101254.19;;;16.97;28.18
18784;BME280;9520;50.954;6.968;2023-04-20T01:42:23;101259.44;;;17.00;29.01
18784;BME280;9520;50.954;6.968;2023-04-20T01:42:45;101252.34;;;16.99;28.94
18784;BME280;9520;50.954;6.968;2023-04-20T01:43:06;101250.53;;;17.01;29.42
18784;BME280;9520;50.954;6.968;2023-04-20T01:43:29;101260.22;;;17.02;29.07
18784;BME280;9520;50.954;6.968;2023-04-20T01:43:51;101257.56;;;17.02;28.99
18784;BME280;9520;50.954;6.968;2023-04-20T01:44:13;101255.03;;;16.99;29.20
18784;BME280;9520;50.954;6.968;2023-04-20T01:44:34;101252.25;;;17.02;29.26
18784;BME280;9520;50.954;6.968;2023-04-20T01:44:57;101257.53;;;17.04;29.06
18784;BME280;9520;50.954;6.968;2023-04-20T01:45:19;101252.16;;;17.05;29.36
18784;BME280;9520;50.954;6.968;2023-04-20T01:45:41;101255.63;;;17.07;28.97
18784;BME280;9520;50.954;6.968;2023-04-20T01:46:03;101259.16;;;17.08;29.38
18784;BME280;9520;50.954;6.968;2023-04-20T01:46:25;101263.59;;;17.09;29.32
18784;BME280;9520;50.954;6.968;2023-04-20T01:46:47;101259.97;;;17.11;28.86
18784;BME280;9520;50.954;6.968;2023-04-20T01:47:09;101262.66;;;17.10;28.93
18784;BME280;9520;50.954;6.968;2023-04-20T01:47:34;101260.03;;;17.08;28.50
18784;BME280;9520;50.954;6.968;2023-04-20T01:47:56;101253.91;;;17.06;28.61
18784;BME280;9520;50.954;6.968;2023-04-20T01:48:19;101251.25;;;17.06;29.24
18784;BME280;9520;50.954;6.968;2023-04-20T01:48:41;101259.25;;;17.06;29.51
18784;BME280;9520;50.954;6.968;2023-04-20T01:49:03;101266.41;;;17.04;29.65
18784;BME280;9520;50.954;6.968;2023-04-20T01:49:24;101264.56;;;17.06;29.24
18784;BME280;9520;50.954;6.968;2023-04-20T01:49:47;101256.72;;;17.02;28.76
18784;BME280;9520;50.954;6.968;2023-04-20T01:50:09;101268.16;;;17.05;28.38
18784;BME280;9520;50.954;6.968;2023-04-20T01:50:31;101246.19;;;16.97;28.24
18784;BME280;9520;50.954;6.968;2023-04-20T01:50:53;101261.94;;;17.05;28.54
18784;BME280;9520;50.954;6.968;2023-04-20T01:51:15;101260.13;;;17.07;28.49
18784;BME280;9520;50.954;6.968;2023-04-20T01:51:38;101254.00;;;17.03;28.82
18784;BME280;9520;50.954;6.968;2023-04-20T01:51:59;101254.00;;;17.03;29.10
18784;BME280;9520;50.954;6.968;2023-04-20T01:52:21;101257.50;;;17.05;29.13
18784;BME280;9520;50.954;6.968;2023-04-20T01:52:44;101256.66;;;17.03;29.33
18784;BME280;9520;50.954;6.968;2023-04-20T01:53:06;101261.09;;;17.03;29.12
18784;BME280;9520;50.954;6.968;2023-04-20T01:53:28;101254.91;;;17.02;28.98
18784;BME280;9520;50.954;6.968;2023-04-20T01:53:50;101255.78;;;17.03;29.14
18784;BME280;9520;50.954;6.968;2023-04-20T01:54:12;101254.81;;;17.05;29.51
18784;BME280;9520;50.954;6.968;2023-04-20T01:54:33;101260.16;;;17.05;29.50
18784;BME280;9520;50.954;6.968;2023-04-20T01:54:57;101253.94;;;17.05;29.12
18784;BME280;9520;50.954;6.968;2023-04-20T01:55:19;101253.06;;;17.04;28.68
18784;BME280;9520;50.954;6.968;2023-04-20T01:55:41;101256.81;;;16.99;28.86
18784;BME280;9520;50.954;6.968;2023-04-20T01:56:03;101247.91;;;17.00;28.47
18784;BME280;9520;50.954;6.968;2023-04-20T01:56:25;101252.34;;;16.99;28.75
18784;BME280;9520;50.954;6.968;2023-04-20T01:56:48;101257.72;;;16.98;28.84
18784;BME280;9520;50.954;6.968;2023-04-20T01:57:09;101255.06;;;16.98;28.61
18784;BME280;9520;50.954;6.968;2023-04-20T01:57:31;101244.41;;;16.98;28.88
18784;BME280;9520;50.954;6.968;2023-04-20T01:57:53;101254.19;;;16.97;28.89
18784;BME280;9520;50.954;6.968;2023-04-20T01:58:17;101257.72;;;16.98;28.53
18784;BME280;9520;50.954;6.968;2023-04-20T01:58:38;101253.34;;;16.97;28.44
18784;BME280;9520;50.954;6.968;2023-04-20T01:59:00;101255.13;;;16.96;28.68
18784;BME280;9520;50.954;6.968;2023-04-20T01:59:22;101258.66;;;16.97;28.88